Weather observations for the past three days for
Santa Ynez, Santa Ynez Airport
Metric (Imperial)
Date Time (pdt) Wind (kph) Vis. (km) Weather Sky Cond. Temperature (ºC) Relative Humidity Wind Chill (°C) Heat Index (°C) Pressure Precipitation (cm)
Air Dwpt 6 hour altimeter (cm) sea level (mb) 1 hr 3 hr 6 hr
Max. Min.
07 12:15 W 11 16.09 Fair CLR 24 12 47% 25 76.23 0.0
07 11:55 SW 11 16.09 Fair CLR 22 13 57% 76.23 0.0
07 11:35 Vrbl 7 16.09 Fair CLR 21 13 60% 76.25 0.0
07 11:15 W 11 G 20 12.87 Fair CLR 20 13 64% 76.25 0.0
07 10:55 Vrbl 6 16.09 Fair CLR 18 13 73% 76.25 0.0
07 10:15 Vrbl 7 16.09 Fair CLR 16 12 77% 76.28 0.0
07 09:55 Vrbl 6 16.09 Fair CLR 15 12 82% 76.28 0.0
07 09:35 Calm 16.09 Mostly Cloudy SCT006 BKN009 15 12 82% 76.3 0.0
07 08:55 Calm 6.44 Fog/Mist OVC003 11 11 100% 76.33 0.0
07 08:35 Calm 2.41 Fog/Mist OVC003 11 11 100% 76.33 0.0
07 08:15 Calm 0.40 Fog OVC003 11 11 100% 76.33 0.0
07 07:55 Calm 0.80 Fog OVC003 11 11 100% 76.3 0.0
07 07:35 Calm 0.40 Fog OVC003 10 10 100% 76.3 0.0
07 06:55 N 6 0.40 Fog OVC003 10 10 100% 76.3 0.0
07 06:15 Calm 0.40 Fog OVC003 11 11 100% 76.25 0.0
07 05:55 Calm 1.21 Fog/Mist OVC003 11 11 100% 76.25 0.0
07 05:35 Calm 1.21 Fog/Mist OVC003 11 11 100% 76.25 0.0
07 05:15 Calm 3.22 Fog/Mist OVC003 11 11 100% 76.28 0.0
07 04:55 Calm 8.05 Fog/Mist OVC003 11 11 100% 76.28 0.0
07 04:35 Calm 9.66 Fog/Mist OVC003 11 11 100% 76.28 0.0
07 03:55 Calm 14.48 Overcast OVC004 12 12 100% 76.28 0.0
07 03:35 Calm 12.87 Overcast OVC004 11 11 100% 76.3 0.0
07 03:15 Calm 12.87 Overcast OVC005 11 11 100% 76.3 0.0
07 02:55 Calm 14.48 Overcast OVC004 11 11 100% 76.3 0.0
07 02:35 Calm 14.48 Overcast OVC004 11 11 100% 76.33 0.0
07 02:15 Calm 16.09 Overcast OVC004 12 11 94% 76.33 0.0
07 01:55 Calm 16.09 Overcast OVC004 11 11 100% 76.35 0.0
07 01:35 Calm 16.09 Overcast OVC005 11 11 100% 76.38 0.0
07 01:15 NE 6 9.66 Fog/Mist OVC006 11 11 100% 76.38 0.0
07 00:55 Calm 16.09 Overcast OVC006 12 12 100% 76.38 0.0
07 00:35 NW 6 16.09 Overcast OVC007 12 12 100% 76.38 0.0
07 00:15 NW 7 16.09 Overcast OVC008 12 12 100% 76.38 0.0
06 23:55 W 7 16.09 Overcast OVC009 12 12 100% 76.38 0.0
06 23:35 W 9 16.09 Overcast OVC010 12 11 94% 76.4 0.0
06 23:15 Calm 16.09 Overcast OVC011 12 12 100% 76.4 0.0
06 22:55 Calm 16.09 Overcast BKN011 OVC019 12 12 100% 76.4 0.0
06 22:35 NW 7 16.09 Mostly Cloudy BKN011 12 12 100% 76.4 0.0
06 22:15 SW 6 16.09 Fair CLR 12 11 94% 76.4 0.0
06 21:35 W 11 16.09 A Few Clouds FEW036 13 12 94% 76.4 0.0
06 21:15 W 11 16.09 A Few Clouds FEW037 13 12 94% 76.4 0.0
06 20:55 W 7 16.09 Fair CLR 14 12 88% 76.38 0.0
06 20:35 SW 9 16.09 Fair CLR 14 12 88% 76.35 0.0
06 20:15 W 9 16.09 Fair CLR 15 12 82% 76.35 0.0
06 19:55 SW 11 16.09 Fair CLR 15 12 82% 76.33 0.0
06 19:35 W 9 G 19 16.09 Fair CLR 16 12 77% 76.33 0.0
06 18:55 W 17 16.09 Fair CLR 18 12 68% 76.3 0.0
06 18:35 W 20 G 30 16.09 Fair CLR 19 12 64% 76.28 0.0
06 18:15 W 22 16.09 Fair CLR 19 12 64% 76.28 0.0
06 17:55 W 22 16.09 Fair CLR 20 12 60% 76.28 0.0
06 17:35 W 20 16.09 Fair CLR 21 12 57% 76.25 0.0
06 17:15 SW 20 G 33 16.09 Fair CLR 21 12 57% 76.25 0.0
06 16:55 SW 24 16.09 Fair CLR 21 11 53% 76.25 0.0
06 16:35 W 26 16.09 Fair CLR 22 11 50% 76.25 0.0
06 16:15 W 24 G 33 16.09 Fair CLR 22 12 53% 76.25 0.0
06 15:55 SW 22 G 33 16.09 Fair CLR 22 12 53% 76.25 0.0
06 15:35 SW 17 G 33 16.09 Fair CLR 22 12 53% 76.25 0.0
06 15:15 W 24 G 35 16.09 Fair CLR 22 12 53% 76.28 0.0
06 14:55 W 24 G 35 16.09 Fair CLR 22 11 50% 76.3 0.0
06 14:35 W 30 16.09 Fair CLR 22 11 50% 76.3 0.0
06 14:15 W 26 G 37 16.09 Fair CLR 22 11 50% 76.3 0.0
06 13:55 W 26 G 35 16.09 Fair CLR 23 11 47% 76.3 0.0
06 13:35 W 24 G 35 16.09 Fair CLR 23 11 47% 76.3 0.0
06 13:15 W 26 16.09 Fair CLR 23 12 50% 76.3 0.0
06 12:55 W 20 16.09 Fair CLR 24 11 44% 25 76.3 0.0
06 12:35 W 17 16.09 Fair CLR 24 11 44% 25 76.3 0.0
06 12:15 W 11 16.09 Fair CLR 22 11 50% 76.33 0.0
06 11:55 Calm 16.09 Fair CLR 21 11 53% 76.35 0.0
06 11:35 Vrbl 9 16.09 Fair CLR 21 10 50% 76.38 0.0
06 11:15 Vrbl 11 12.87 Light Rain CLR 20 10 53% 76.4 0.0
06 10:55 Vrbl 6 16.09 Fair CLR 20 9 49% 76.4 0.0
06 10:35 W 11 16.09 Fair CLR 19 10 56% 76.4 0.0
06 10:15 SW 9 16.09 Fair CLR 18 11 64% 76.4 0.0
06 09:55 Vrbl 7 16.09 Fair CLR 17 11 68% 76.4 0.0
06 09:35 S 9 16.09 Fair CLR 16 11 72% 76.4 0.0
06 09:15 SW 9 4.02 Fair with Haze CLR 15 11 77% 76.4 0.0
06 08:55 Calm 16.09 Fair CLR 14 11 82% 76.4 0.0
06 08:35 W 7 16.09 Fair CLR 14 10 77% 76.4 0.0
06 08:15 Calm 16.09 Fair CLR 13 10 82% 76.43 0.0
06 07:55 Calm 16.09 A Few Clouds FEW012 13 10 82% 76.43 0.0
06 07:35 Calm 11.27 Mostly Cloudy BKN011 12 10 88% 76.4 0.0
06 07:15 Calm 12.87 Overcast OVC011 12 10 88% 76.4 0.0
06 06:55 Calm 16.09 Overcast OVC011 12 10 88% 76.4 0.0
06 06:35 E 7 16.09 Overcast OVC011 11 10 94% 76.38 0.0
06 06:15 Calm 16.09 Overcast OVC012 11 10 94% 76.38 0.0
06 05:55 Calm 16.09 Overcast OVC012 11 10 94% 76.35 0.0
06 05:35 Calm 16.09 Overcast OVC012 11 10 94% 76.35 0.0
06 05:15 E 7 16.09 Overcast OVC011 11 10 94% 76.35 0.0
06 04:35 Calm 16.09 Overcast OVC011 12 10 88% 76.38 0.0
06 04:15 E 7 16.09 Overcast OVC011 12 10 88% 76.38 0.0
06 03:55 Calm 16.09 Overcast OVC011 12 10 88% 76.38 0.0
06 03:35 Calm 16.09 Overcast OVC011 12 11 94% 76.38 0.0
06 03:15 Calm 16.09 Overcast OVC011 12 11 94% 76.35 0.0
06 02:55 Calm 16.09 Overcast OVC012 12 11 94% 76.35 0.0
06 02:35 Calm 16.09 Overcast OVC013 12 11 94% 76.38 0.0
06 02:15 Calm 16.09 Overcast OVC012 12 11 94% 76.38 0.0
06 01:55 Calm 16.09 Overcast OVC012 12 11 94% 76.38 0.0
06 01:35 W 7 16.09 Overcast OVC012 12 11 94% 76.4 0.0
06 01:15 Calm 16.09 Overcast OVC011 12 11 94% 76.38 0.0
06 00:55 NW 7 16.09 Overcast OVC010 12 11 94% 76.4 0.0
06 00:35 Calm 16.09 Overcast OVC010 12 11 94% 76.4 0.0
06 00:15 Calm 16.09 Overcast OVC011 12 11 94% 76.38 0.0
05 23:55 Calm 16.09 Overcast OVC011 12 10 88% 76.38 0.0
05 23:35 Calm 16.09 Overcast OVC012 12 11 94% 76.35 0.0
05 23:15 SW 7 16.09 Overcast OVC012 12 11 94% 76.35 0.0
05 22:55 W 7 16.09 Overcast OVC014 12 11 94% 76.35 0.0
05 22:35 W 6 16.09 Mostly Cloudy BKN015 11 10 94% 76.35 0.0
05 22:15 W 9 16.09 Partly Cloudy SCT016 11 10 94% 76.33 0.0
05 21:55 SW 9 16.09 Partly Cloudy SCT017 SCT025 12 10 88% 76.33 0.0
05 21:35 W 7 16.09 A Few Clouds FEW019 FEW028 FEW035 12 10 88% 76.3 0.0
05 21:15 W 11 16.09 Partly Cloudy FEW019 SCT033 SCT038 12 10 88% 76.28 0.0
05 20:55 SW 11 16.09 A Few Clouds FEW037 13 10 82% 76.25 0.0
05 20:35 W 9 G 20 16.09 Partly Cloudy SCT075 14 10 77% 76.23 0.0
05 20:15 W 17 16.09 Overcast OVC070 15 8 63% 76.2 0.0
05 19:55 NW 13 16.09 Overcast OVC070 15 8 63% 76.17 0.0
05 19:35 W 15 G 24 16.09 Overcast OVC070 16 8 59% 76.15 0.0
05 19:15 W 19 16.09 Overcast OVC070 17 9 60% 76.12 0.0
05 18:55 NW 19 G 28 16.09 Partly Cloudy FEW055 SCT075 17 8 56% 76.12 0.0
05 18:35 NW 24 16.09 Mostly Cloudy BKN050 18 7 49% 76.1 0.0
05 18:15 NW 22 16.09 Mostly Cloudy BKN050 19 8 49% 76.1 0.0
05 17:55 W 22 16.09 Partly Cloudy FEW050 SCT065 19 8 49% 76.1 0.0
05 17:35 W 22 16.09 Partly Cloudy SCT065 19 7 46% 76.07 0.0
05 17:15 NW 22 16.09 Mostly Cloudy BKN060 BKN100 20 8 46% 76.07 0.0
05 16:55 NW 19 G 37 16.09 Mostly Cloudy BKN065 BKN075 BKN100 20 7 43% 76.05 0.0
05 16:35 NW 19 16.09 Mostly Cloudy SCT070 BKN080 19 7 46% 76.07 0.0
05 16:15 NW 17 G 30 16.09 Mostly Cloudy BKN065 20 7 43% 76.07 0.0
05 15:55 NW 17 G 30 16.09 Partly Cloudy SCT065 SCT075 21 7 40% 76.07 0.0
05 15:35 N 22 16.09 Mostly Cloudy BKN065 20 7 43% 76.1 0.0
05 15:15 NW 24 16.09 Fair CLR 20 7 43% 76.1 0.0
05 14:55 NW 26 16.09 Fair CLR 20 7 43% 76.1 0.0
05 14:35 NW 20 G 33 16.09 A Few Clouds FEW046 FEW055 FEW075 20 7 43% 76.12 0.0
05 14:15 NW 19 G 30 16.09 Mostly Cloudy BKN047 BKN055 BKN065 20 7 43% 76.1 0.0
05 13:55 NW 17 G 31 16.09 Mostly Cloudy FEW048 SCT055 BKN075 21 7 40% 76.1 0.0
05 13:35 NW 20 G 33 16.09 Partly Cloudy FEW046 SCT055 SCT080 21 7 40% 76.1 0.0
05 13:15 NW 22 G 33 16.09 Partly Cloudy FEW045 SCT065 SCT110 21 7 40% 76.1 0.0
05 12:55 W 17 G 33 16.09 Mostly Cloudy SCT047 BKN065 21 7 40% 76.1 0.0
05 12:35 NW 17 G 28 16.09 Partly Cloudy SCT047 SCT055 20 7 43% 76.12 0.0
05 12:15 NW 19 G 30 16.09 Fair CLR 20 7 43% 76.12 0.0
05 11:55 W 22 G 31 16.09 Fair CLR 20 7 43% 76.12 0.0
05 11:35 NW 17 G 28 16.09 Fair CLR 19 7 46% 76.12 0.0
05 11:15 NW 19 16.09 A Few Clouds FEW060 19 7 46% 76.12 0.0
05 10:55 NW 20 16.09 Partly Cloudy SCT060 19 7 46% 76.12 0.0
05 10:35 NW 22 G 33 16.09 A Few Clouds FEW060 18 8 52% 76.12 0.0
05 10:15 NW 13 G 28 16.09 Fair CLR 18 7 49% 76.12 0.0
05 09:55 W 22 G 31 16.09 Fair CLR 17 8 56% 76.12 0.0
05 09:35 W 13 G 26 16.09 Fair CLR 16 8 59% 76.15 0.0
05 09:15 NW 17 16.09 Fair CLR 16 9 63% 76.12 0.0
05 08:35 Vrbl 11 16.09 Fair CLR 14 9 72% 76.15 0.0
05 08:15 W 11 16.09 A Few Clouds FEW017 13 9 77% 76.12 0.0
05 07:55 SW 9 16.09 Fair CLR 12 10 88% 76.12 0.0
05 07:35 SW 7 16.09 Partly Cloudy SCT080 11 10 94% 76.12 0.0
05 07:15 SW 7 16.09 Overcast OVC080 10 10 100% 9 76.12 0.0
05 06:55 SW 6 16.09 Overcast SCT060 OVC080 10 9 94% 76.12 0.0
05 06:35 Calm 16.09 Overcast BKN060 OVC080 9 9 100% 76.12 0.0
05 06:15 Calm 16.09 Overcast OVC065 9 9 100% 76.1 0.0
05 05:55 W 9 16.09 Overcast OVC070 10 9 94% 9 76.1 0.0
05 05:35 SW 7 16.09 Overcast OVC070 10 9 94% 9 76.1 0.0
05 05:15 SW 6 16.09 Overcast OVC070 10 9 94% 76.1 0.0
05 04:55 SW 7 16.09 Overcast OVC075 10 9 94% 9 76.1 0.0
05 04:35 SW 6 16.09 Overcast FEW060 OVC080 9 9 100% 76.1 0.0
05 04:15 Calm 16.09 Overcast OVC080 9 9 100% 76.1 0.0
05 03:55 Calm 16.09 Overcast OVC080 9 9 100% 76.1 0.0
05 03:35 Calm 16.09 Mostly Cloudy BKN080 9 9 100% 76.1 0.0
05 03:15 Calm 16.09 Mostly Cloudy BKN080 9 9 100% 76.12 0.0
05 02:55 Calm 16.09 Overcast OVC075 10 9 94% 76.12 0.0
05 02:35 Calm 16.09 Overcast FEW013 FEW019 OVC075 10 9 94% 76.12 0.0
05 02:15 Calm 16.09 Overcast BKN013 OVC075 10 9 94% 76.15 0.0
05 01:55 W 7 16.09 Overcast OVC075 9 9 100% 8 76.15 0.0
05 01:35 Calm 16.09 Overcast OVC075 10 9 94% 76.15 0.0
05 01:15 Calm 16.09 Overcast OVC075 10 9 94% 76.17 0.0
05 00:55 Calm 16.09 Overcast OVC075 10 9 94% 76.17 0.0
05 00:35 Calm 16.09 Overcast OVC075 10 9 94% 76.17 0.0
05 00:15 W 6 16.09 Overcast OVC075 10 9 94% 76.17 0.0
04 23:55 SW 6 16.09 Overcast OVC075 10 9 94% 76.15 0.0
04 23:35 S 7 16.09 Overcast OVC075 10 9 94% 9 76.17 0.0
04 23:15 Calm 16.09 Mostly Cloudy BKN075 10 9 94% 76.15 0.0
04 22:55 S 6 16.09 A Few Clouds FEW075 10 9 94% 76.17 0.0
04 22:35 S 7 16.09 Partly Cloudy SCT075 11 9 88% 76.17 0.0
04 22:15 NW 6 16.09 A Few Clouds FEW080 11 9 88% 76.17 0.0
04 21:55 NW 9 16.09 A Few Clouds FEW080 12 9 82% 76.17 0.0
04 21:35 W 7 16.09 A Few Clouds FEW027 12 9 82% 76.17 0.0
04 21:15 NW 7 16.09 Mostly Cloudy SCT027 BKN075 12 8 77% 76.17 0.0
04 20:55 W 11 16.09 Overcast BKN028 OVC075 13 8 72% 76.17 0.0
04 20:35 W 15 16.09 Partly Cloudy FEW049 SCT075 13 8 72% 76.15 0.0
04 20:15 W 13 16.09 Mostly Cloudy SCT047 BKN075 14 8 67% 76.12 0.0
04 19:55 Vrbl 11 16.09 Overcast BKN045 OVC055 14 8 67% 76.1 0.0
04 19:35 W 15 16.09 Overcast BKN042 OVC050 15 8 63% 76.1 0.0
04 19:15 W 17 16.09 Overcast OVC042 15 8 63% 76.1 0.0
04 18:55 W 20 16.09 Overcast OVC042 15 8 63% 76.07 0.0
04 18:35 W 19 16.09 Overcast SCT046 OVC070 16 7 55% 76.07 0.0
04 18:15 W 19 G 28 16.09 Overcast SCT049 OVC070 16 8 59% 76.07 0.0
04 17:55 W 17 16.09 Mostly Cloudy BKN049 BKN075 17 7 52% 76.07 0.0
04 17:35 W 19 16.09 Mostly Cloudy BKN075 17 7 52% 76.07 0.0
04 17:15 W 22 16.09 Overcast OVC075 17 7 52% 76.07 0.0
04 16:55 W 17 G 28 16.09 Overcast OVC075 17 7 52% 76.07 0.0
04 16:35 W 19 16.09 Overcast SCT060 BKN070 OVC085 18 7 49% 76.07 0.0
04 16:15 W 19 16.09 Overcast SCT060 BKN070 OVC085 18 8 52% 76.07 0.0
04 15:55 W 15 16.09 Overcast BKN055 OVC080 18 8 52% 76.07 0.0
04 15:35 W 19 G 28 16.09 Overcast FEW050 OVC075 18 8 52% 76.1 0.0
04 15:15 SW 15 G 28 16.09 Light Rain SCT047 BKN055 OVC075 19 8 49% 76.12 0.0
04 14:55 W 19 16.09 Overcast BKN048 BKN055 OVC075 18 8 52% 76.12 0.0
04 14:35 W 19 16.09 Overcast FEW034 BKN050 OVC080 18 9 56% 76.15 0.0
04 14:15 W 19 16.09 Overcast BKN039 OVC050 18 7 49% 76.15 0.0
04 13:55 SW 17 G 30 16.09 Overcast BKN040 OVC047 18 9 56% 76.15 0.0
04 13:35 W 15 16.09 Overcast BKN045 BKN055 OVC080 19 8 49% 76.12 0.0
04 13:15 SW 13 G 28 16.09 Overcast SCT049 SCT060 OVC075 20 6 40% 76.12 0.0
04 12:55 S 13 G 24 16.09 Mostly Cloudy SCT050 BKN060 BKN070 19 8 49% 76.12 0.0
Date Time (pdt) Wind (kph) Vis. (km) Weather Sky Cond. Air Dwpt Max. Min. Relative Humidity Wind Chill (°C) Heat Index (°C) altimeter (cm) sea level (mb) 1 hr 3 hr 6 hr
6 hour
Temperature (ºC) Pressure Precipitation (cm)